Time;durP1;ratioP1;P1;durP2;ratioP2;P2;SDS_P1;SDS_P2;PMS_P1;PMS_P2;Temp;Humidity;BMP_temperature;BMP_pressure;BME280_temperature;BME280_humidity;BME280_pressure;Samples;Min_cycle;Max_cycle;Signal;HPM_P1;HPM_P2
2022/10/21 00:00:56;;;;;;;2.83;2.53;;;;;19.00;99823.00;;;;2063538;28;20590;-52
2022/10/21 00:01:56;;;;;;;2.17;2.00;;;;;19.00;99818.00;;;;2062572;28;20215;-51
2022/10/21 00:02:56;;;;;;;2.70;2.50;;;;;19.00;99819.00;;;;2063247;28;20454;-50
2022/10/21 00:03:57;;;;;;;2.70;2.50;;;;;19.00;99809.00;;;;2063143;28;20211;-52
2022/10/21 00:04:57;;;;;;;3.10;2.20;;;;;19.00;99799.00;;;;2063283;28;20392;-51
2022/10/21 00:05:57;;;;;;;2.90;2.70;;;;;19.00;99802.00;;;;2067836;28;20217;-51
2022/10/21 00:06:58;;;;;;;2.70;2.50;;;;;19.00;99801.00;;;;2071728;28;20225;-52
2022/10/21 00:07:58;;;;;;;2.83;2.63;;;;;19.00;99801.00;;;;2071255;28;20292;-50
2022/10/21 00:08:58;;;;;;;2.73;2.53;;;;;19.00;99788.00;;;;2071557;28;20226;-50
2022/10/21 00:09:59;;;;;;;2.67;2.47;;;;;19.00;99785.00;;;;2071650;28;20214;-51
2022/10/21 00:11:00;;;;;;;2.60;2.40;;;;;19.00;99778.00;;;;2071653;28;20221;-49
2022/10/21 00:12:00;;;;;;;2.47;2.28;;;;;19.00;99769.00;;;;2070638;28;20218;-50
2022/10/21 00:13:01;;;;;;;2.40;2.20;;;;;19.00;99779.00;;;;2071582;28;20632;-50
2022/10/21 00:14:01;;;;;;;2.40;2.20;;;;;19.00;99780.00;;;;2071273;28;20675;-51
2022/10/21 00:15:03;;;;;;;2.67;2.47;;;;;19.00;99781.00;;;;2071496;28;20729;-52
2022/10/21 00:16:09;;;;;;;2.38;2.17;;;;;19.00;99782.00;;;;2071747;28;20217;-52
2022/10/21 00:17:09;;;;;;;2.97;2.67;;;;;19.00;99777.00;;;;2063848;28;20223;-50
2022/10/21 00:18:09;;;;;;;2.60;2.40;;;;;19.00;99772.00;;;;2064579;28;20312;-51
2022/10/21 00:19:10;;;;;;;2.50;2.30;;;;;19.00;99767.00;;;;2069555;28;20225;-51
2022/10/21 00:20:11;;;;;;;2.90;2.60;;;;;18.70;99758.00;;;;2064076;28;20246;-50
2022/10/21 00:21:16;;;;;;;2.83;2.63;;;;;19.00;99764.00;;;;2063141;28;20228;-51
2022/10/21 00:22:16;;;;;;;2.80;2.60;;;;;19.00;99769.00;;;;2061725;28;20454;-51
2022/10/21 00:23:17;;;;;;;2.67;2.47;;;;;19.00;99757.00;;;;2062064;28;20670;-52
2022/10/21 00:24:17;;;;;;;2.90;2.37;;;;;19.00;99760.00;;;;2062681;28;20722;-52
2022/10/21 00:25:17;;;;;;;2.70;2.33;;;;;19.00;99763.00;;;;2062741;28;20381;-52
2022/10/21 00:26:18;;;;;;;2.47;2.27;;;;;19.00;99769.00;;;;2062874;28;20221;-54
2022/10/21 00:27:18;;;;;;;2.57;2.37;;;;;19.00;99767.00;;;;2062578;28;20241;-51
2022/10/21 00:28:19;;;;;;;2.57;2.37;;;;;19.00;99759.00;;;;2063377;28;20229;-51
2022/10/21 00:29:19;;;;;;;2.73;2.50;;;;;19.00;99764.00;;;;2063304;28;20288;-50
2022/10/21 00:30:19;;;;;;;2.17;1.97;;;;;19.00;99759.00;;;;2063564;28;20219;-51
2022/10/21 00:31:20;;;;;;;2.47;2.13;;;;;19.00;99765.00;;;;2063198;28;20214;-51
2022/10/21 00:32:20;;;;;;;2.10;2.00;;;;;19.00;99761.00;;;;2062641;28;20223;-50
2022/10/21 00:33:20;;;;;;;2.70;2.50;;;;;19.00;99762.00;;;;2057877;28;20217;-51
2022/10/21 00:34:21;;;;;;;2.63;2.43;;;;;19.00;99762.00;;;;2062871;28;20379;-52
2022/10/21 00:35:21;;;;;;;2.87;2.57;;;;;19.00;99768.00;;;;2062498;28;20300;-51
2022/10/21 00:36:21;;;;;;;2.80;2.60;;;;;19.00;99766.00;;;;2062924;28;20237;-52
2022/10/21 00:37:22;;;;;;;3.00;2.47;;;;;19.00;99763.00;;;;2063486;28;20217;-49
2022/10/21 00:38:22;;;;;;;3.00;2.70;;;;;19.00;99759.00;;;;2063080;28;20219;-51
2022/10/21 00:39:22;;;;;;;2.97;2.40;;;;;19.00;99748.00;;;;2063336;28;20303;-52
2022/10/21 00:40:23;;;;;;;2.73;2.53;;;;;19.00;99759.00;;;;2063462;28;20230;-51
2022/10/21 00:41:23;;;;;;;2.70;2.50;;;;;19.00;99782.00;;;;2063550;28;20218;-51
2022/10/21 00:42:32;;;;;;;2.80;2.60;;;;;19.00;99767.00;;;;2062189;28;20254;-51
2022/10/21 00:43:50;;;;;;;3.08;2.60;;;;;19.00;99777.00;;;;2062583;28;20717;-50
2022/10/21 00:45:21;;;;;;;3.05;2.78;;;;;19.00;99777.00;;;;2068495;28;20210;-50
2022/10/21 00:46:43;;;;;;;2.60;2.40;;;;;19.00;99776.00;;;;2061577;28;20241;-51
2022/10/21 00:47:48;;;;;;;2.40;2.20;;;;;19.00;99764.00;;;;2070795;28;20244;-52
2022/10/21 00:48:53;;;;;;;2.55;2.35;;;;;19.00;99771.00;;;;2071249;28;20321;-52
2022/10/21 00:49:57;;;;;;;2.90;2.70;;;;;19.00;99766.00;;;;2062514;28;20217;-51
2022/10/21 00:51:05;;;;;;;3.25;2.95;;;;;19.00;99762.00;;;;2054838;28;20320;-52
2022/10/21 00:52:08;;;;;;;2.78;2.58;;;;;19.00;99765.00;;;;2057687;28;20277;-52
2022/10/21 00:53:10;;;;;;;2.47;2.30;;;;;18.80;99764.00;;;;2062815;28;20764;-52
2022/10/21 00:54:10;;;;;;;2.65;2.45;;;;;19.00;99766.00;;;;2061397;28;20229;-51
2022/10/21 00:55:10;;;;;;;2.60;2.40;;;;;19.00;99766.00;;;;2046591;28;20255;-50
2022/10/21 00:56:12;;;;;;;2.97;2.60;;;;;19.00;99762.00;;;;2069361;28;20592;-50
2022/10/21 00:57:13;;;;;;;3.15;2.85;;;;;19.00;99767.00;;;;2071600;28;20233;-51
2022/10/21 00:58:13;;;;;;;2.83;2.30;;;;;19.00;99770.00;;;;2069776;28;20619;-50
2022/10/21 00:59:13;;;;;;;2.90;2.70;;;;;19.00;99775.00;;;;2070910;28;20404;-51
2022/10/21 01:00:14;;;;;;;2.60;2.40;;;;;19.00;99768.00;;;;2070958;28;20268;-52
2022/10/21 01:01:14;;;;;;;2.77;2.57;;;;;19.00;99764.00;;;;2071500;28;20209;-51
2022/10/21 01:02:15;;;;;;;2.60;2.40;;;;;19.00;99769.00;;;;2070342;28;20689;-51
2022/10/21 01:03:15;;;;;;;2.80;2.60;;;;;19.00;99764.00;;;;2070816;28;20218;-50
2022/10/21 01:04:16;;;;;;;2.40;2.00;;;;;19.00;99752.00;;;;2071282;28;20570;-52
2022/10/21 01:05:16;;;;;;;2.63;2.43;;;;;19.00;99773.00;;;;2070515;28;20584;-52
2022/10/21 01:06:19;;;;;;;2.13;1.90;;;;;19.00;99763.00;;;;2061072;28;20234;-51
2022/10/21 01:07:19;;;;;;;3.00;2.70;;;;;19.00;99769.00;;;;2070926;28;20217;-51
2022/10/21 01:08:19;;;;;;;2.77;2.57;;;;;19.00;99764.00;;;;2070655;28;20225;-50
2022/10/21 01:09:20;;;;;;;2.53;2.33;;;;;19.00;99766.00;;;;2070710;28;20245;-50
2022/10/21 01:10:20;;;;;;;2.73;2.50;;;;;19.00;99767.00;;;;2071470;28;20218;-51
2022/10/21 01:11:21;;;;;;;3.53;3.23;;;;;19.00;99757.00;;;;2071409;28;20271;-52
2022/10/21 01:12:56;;;;;;;3.33;3.03;;;;;19.00;99765.00;;;;2069470;28;20214;-52
2022/10/21 01:14:12;;;;;;;2.80;2.60;;;;;19.00;99746.00;;;;2064052;28;20238;-50
2022/10/21 01:15:35;;;;;;;2.92;2.72;;;;;19.00;99762.00;;;;2061872;28;20691;-51
2022/10/21 01:16:42;;;;;;;2.95;2.38;;;;;19.00;99754.00;;;;2049523;28;20215;-51
2022/10/21 01:18:06;;;;;;;2.72;2.53;;;;;19.00;99761.00;;;;2056146;28;20218;-50
2022/10/21 01:19:21;;;;;;;2.88;2.67;;;;;19.00;99761.00;;;;2069022;28;20218;-52
2022/10/21 01:20:58;;;;;;;2.40;2.20;;;;;19.00;99762.00;;;;2069295;28;20227;-52
2022/10/21 01:22:08;;;;;;;2.70;2.50;;;;;19.00;99769.00;;;;2059592;28;20665;-51
2022/10/21 01:23:15;;;;;;;3.50;2.63;;;;;19.00;99768.00;;;;2074214;28;20307;-51
2022/10/21 01:24:47;;;;;;;2.60;2.40;;;;;19.00;99762.00;;;;2069024;28;20602;-52
2022/10/21 01:26:05;;;;;;;3.28;2.63;;;;;19.00;99762.00;;;;2061721;28;20255;-52
2022/10/21 01:27:11;;;;;;;2.75;2.47;;;;;19.00;99756.00;;;;2068470;28;20218;-52
2022/10/21 01:28:39;;;;;;;2.65;2.45;;;;;19.00;99759.00;;;;2069850;28;20288;-51
2022/10/21 01:30:04;;;;;;;2.50;2.30;;;;;19.00;99748.00;;;;2064929;28;20596;-51
2022/10/21 01:31:14;;;;;;;2.20;2.10;;;;;19.00;99724.00;;;;2070431;28;20232;-50
2022/10/21 01:32:33;;;;;;;2.80;2.60;;;;;19.00;99737.00;;;;2070019;28;20300;-51
2022/10/21 01:33:55;;;;;;;2.40;2.20;;;;;19.00;99718.00;;;;2072243;28;20585;-50
2022/10/21 01:35:08;;;;;;;2.75;2.50;;;;;19.00;99743.00;;;;2070376;28;20276;-51
2022/10/21 01:36:14;;;;;;;2.50;2.30;;;;;19.00;99739.00;;;;2071701;28;20324;-52
2022/10/21 01:37:50;;;;;;;2.92;2.60;;;;;18.90;99732.00;;;;2071647;28;20542;-51
2022/10/21 01:39:24;;;;;;;2.60;2.40;;;;;19.00;99721.00;;;;2062720;28;20260;-51
2022/10/21 01:40:51;;;;;;;2.50;2.30;;;;;19.00;99732.00;;;;2062695;28;20709;-51
2022/10/21 01:41:57;;;;;;;2.60;2.40;;;;;19.00;99722.00;;;;2063184;28;20214;-50
2022/10/21 01:43:00;;;;;;;2.78;2.58;;;;;19.00;99719.00;;;;2063405;28;20611;-50
2022/10/21 01:44:10;;;;;;;2.50;2.30;;;;;19.00;99718.00;;;;2062517;28;20744;-50
2022/10/21 01:45:10;;;;;;;2.60;2.40;;;;;19.00;99715.00;;;;2048208;28;20714;-50
2022/10/21 01:46:22;;;;;;;3.10;2.80;;;;;19.00;99716.00;;;;2055790;28;20306;-51
2022/10/21 01:47:27;;;;;;;2.28;2.08;;;;;19.00;99708.00;;;;2068933;28;20697;-51
2022/10/21 01:48:36;;;;;;;2.80;2.60;;;;;19.00;99710.00;;;;2069748;28;20213;-50
2022/10/21 01:49:37;;;;;;;3.03;2.17;;;;;19.00;99708.00;;;;2055695;28;20216;-51
2022/10/21 01:50:41;;;;;;;2.33;2.13;;;;;19.00;99710.00;;;;2048428;28;20825;-50
2022/10/21 01:51:41;;;;;;;3.17;2.88;;;;;19.00;99713.00;;;;2063628;28;20478;-51
2022/10/21 01:52:43;;;;;;;2.40;2.20;;;;;19.00;99709.00;;;;2070665;28;20221;-52
2022/10/21 01:54:14;;;;;;;3.15;2.60;;;;;19.00;99712.00;;;;2061808;28;20293;-51
2022/10/21 01:55:19;;;;;;;2.80;2.60;;;;;19.00;99711.00;;;;2054899;28;20346;-50
2022/10/21 01:56:19;;;;;;;2.30;2.10;;;;;19.00;99695.00;;;;2064651;28;20246;-52
2022/10/21 01:57:20;;;;;;;2.53;2.33;;;;;19.00;99701.00;;;;2071834;28;20225;-50
2022/10/21 01:58:22;;;;;;;2.90;2.70;;;;;19.00;99695.00;;;;2071835;28;21283;-50
2022/10/21 01:59:23;;;;;;;2.50;2.30;;;;;19.00;99704.00;;;;2071868;28;20217;-51
2022/10/21 02:00:24;;;;;;;2.63;2.43;;;;;19.00;99699.00;;;;2071610;28;20635;-51
2022/10/21 02:01:25;;;;;;;3.13;2.78;;;;;19.00;99702.00;;;;2064302;28;20215;-50
2022/10/21 02:02:26;;;;;;;2.83;2.43;;;;;18.80;99683.00;;;;2062963;28;20214;-51
2022/10/21 02:03:29;;;;;;;2.30;2.10;;;;;19.00;99706.00;;;;2071473;28;20233;-50
2022/10/21 02:04:29;;;;;;;2.78;2.58;;;;;19.00;99695.00;;;;2063805;28;20226;-51
2022/10/21 02:05:30;;;;;;;2.37;2.17;;;;;19.00;99691.00;;;;2063485;28;20229;-51
2022/10/21 02:06:31;;;;;;;2.90;2.70;;;;;19.00;99693.00;;;;2072050;28;20232;-50
2022/10/21 02:07:31;;;;;;;2.97;2.67;;;;;19.00;99691.00;;;;2071939;28;20214;-51
2022/10/21 02:08:31;;;;;;;2.57;2.37;;;;;19.00;99695.00;;;;2071856;28;20281;-51
2022/10/21 02:09:32;;;;;;;2.80;2.50;;;;;19.00;99690.00;;;;2063663;28;20243;-51
2022/10/21 02:10:36;;;;;;;2.63;2.43;;;;;19.00;99698.00;;;;2055776;28;20215;-51
2022/10/21 02:11:36;;;;;;;2.75;2.55;;;;;19.00;99681.00;;;;2071215;28;20214;-51
2022/10/21 02:12:38;;;;;;;2.53;2.33;;;;;19.00;99688.00;;;;2070890;28;20222;-49
2022/10/21 02:13:53;;;;;;;2.40;2.20;;;;;19.00;99680.00;;;;2071764;28;20300;-51
2022/10/21 02:14:53;;;;;;;2.70;2.50;;;;;19.00;99679.00;;;;2063401;28;20225;-50
2022/10/21 02:15:55;;;;;;;2.97;2.73;;;;;19.00;99672.00;;;;2064211;28;20215;-52
2022/10/21 02:16:55;;;;;;;3.00;2.70;;;;;19.00;99669.00;;;;2063676;28;20618;-51
2022/10/21 02:17:59;;;;;;;2.90;2.70;;;;;19.00;99671.00;;;;2047448;28;20258;-51
2022/10/21 02:18:59;;;;;;;2.72;2.53;;;;;19.00;99689.00;;;;2056334;28;20223;-52
2022/10/21 02:20:00;;;;;;;2.43;2.23;;;;;19.00;99662.00;;;;2068045;28;20754;-50
2022/10/21 02:21:09;;;;;;;2.77;2.57;;;;;19.00;99670.00;;;;2063888;28;20254;-51
2022/10/21 02:22:10;;;;;;;2.90;2.70;;;;;19.00;99672.00;;;;2062660;28;20222;-53
2022/10/21 02:23:12;;;;;;;2.67;2.47;;;;;19.00;99668.00;;;;2062399;28;20226;-50
2022/10/21 02:24:35;;;;;;;2.60;2.40;;;;;19.00;99670.00;;;;2062059;28;21010;-51
2022/10/21 02:25:35;;;;;;;2.75;2.55;;;;;19.00;99659.00;;;;2067900;28;20218;-53
2022/10/21 02:26:36;;;;;;;2.93;2.73;;;;;19.00;99670.00;;;;2071804;28;20305;-50
2022/10/21 02:27:36;;;;;;;2.60;2.40;;;;;19.00;99659.00;;;;2071652;28;20219;-50
2022/10/21 02:28:36;;;;;;;2.80;2.60;;;;;19.00;99654.00;;;;2071748;28;20257;-51
2022/10/21 02:29:38;;;;;;;2.20;2.00;;;;;19.00;99653.00;;;;2071803;28;20202;-51
2022/10/21 02:30:46;;;;;;;2.88;2.67;;;;;19.00;99635.00;;;;2062768;28;20607;-51
2022/10/21 02:31:54;;;;;;;2.90;2.70;;;;;19.00;99653.00;;;;2071360;28;20314;-49
2022/10/21 02:33:07;;;;;;;3.05;2.85;;;;;19.00;99655.00;;;;2070970;28;20222;-51
2022/10/21 02:34:10;;;;;;;2.80;2.60;;;;;19.00;99653.00;;;;2070908;28;20297;-52
2022/10/21 02:35:50;;;;;;;2.22;2.03;;;;;19.00;99659.00;;;;2071610;28;20245;-53
2022/10/21 02:36:55;;;;;;;2.60;2.40;;;;;19.00;99662.00;;;;2066763;28;20647;-50
2022/10/21 02:38:04;;;;;;;3.15;2.85;;;;;19.00;99654.00;;;;2071662;28;20738;-51
2022/10/21 02:39:12;;;;;;;3.00;2.80;;;;;19.00;99659.00;;;;2071679;28;20229;-52
2022/10/21 02:40:25;;;;;;;3.25;2.70;;;;;19.00;99662.00;;;;2063116;28;20219;-50
2022/10/21 02:41:25;;;;;;;2.50;2.30;;;;;19.00;99657.00;;;;2063671;28;20256;-52
2022/10/21 02:42:28;;;;;;;3.03;2.73;;;;;19.00;99652.00;;;;2070468;28;20579;-51
2022/10/21 02:43:33;;;;;;;3.15;2.67;;;;;19.00;99659.00;;;;2054844;28;20680;-51
2022/10/21 02:44:33;;;;;;;2.60;2.40;;;;;19.00;99648.00;;;;2048349;28;20223;-52
2022/10/21 02:45:33;;;;;;;2.60;2.40;;;;;19.00;99655.00;;;;2063705;28;20226;-52
2022/10/21 02:46:36;;;;;;;2.80;2.60;;;;;19.00;99660.00;;;;2072304;28;20229;-51
2022/10/21 02:47:37;;;;;;;3.50;3.20;;;;;19.00;99649.00;;;;2071473;28;20611;-51
2022/10/21 02:48:38;;;;;;;2.80;2.50;;;;;19.00;99653.00;;;;2071942;28;20210;-51
2022/10/21 02:49:38;;;;;;;2.38;2.17;;;;;19.00;99649.00;;;;2068697;28;20454;-52
2022/10/21 02:50:39;;;;;;;2.80;2.60;;;;;19.00;99573.00;;;;2063284;28;20225;-53
2022/10/21 02:51:39;;;;;;;2.90;2.70;;;;;19.00;99653.00;;;;2064538;28;20215;-50
2022/10/21 02:52:40;;;;;;;2.30;2.10;;;;;19.00;99650.00;;;;2054429;28;20220;-51
2022/10/21 02:53:40;;;;;;;2.17;2.07;;;;;19.00;99646.00;;;;2055565;28;20278;-51
2022/10/21 02:54:40;;;;;;;2.37;2.23;;;;;19.00;99649.00;;;;2063549;28;20247;-50
2022/10/21 02:55:41;;;;;;;2.57;2.30;;;;;19.00;99647.00;;;;2063305;28;20734;-52
2022/10/21 02:56:41;;;;;;;2.80;2.60;;;;;19.00;99653.00;;;;2063903;28;20211;-51
2022/10/21 02:57:41;;;;;;;2.27;2.07;;;;;19.00;99651.00;;;;2064273;28;20265;-50
2022/10/21 02:58:42;;;;;;;2.53;2.33;;;;;19.00;99658.00;;;;2064165;28;20249;-50
2022/10/21 02:59:42;;;;;;;2.37;2.17;;;;;19.00;99656.00;;;;2064291;28;20207;-52
2022/10/21 03:00:42;;;;;;;2.50;2.30;;;;;19.00;99658.00;;;;2064286;28;20215;-50
2022/10/21 03:01:43;;;;;;;2.60;2.40;;;;;19.00;99660.00;;;;2063992;28;20230;-50
2022/10/21 03:02:43;;;;;;;2.43;2.23;;;;;19.00;99661.00;;;;2063428;28;20234;-52
2022/10/21 03:03:43;;;;;;;2.47;2.27;;;;;19.00;99662.00;;;;2064039;28;20218;-50
2022/10/21 03:04:44;;;;;;;2.77;2.57;;;;;19.00;99660.00;;;;2064178;28;20234;-50
2022/10/21 03:05:44;;;;;;;3.30;3.00;;;;;19.00;99664.00;;;;2064015;28;20215;-51
2022/10/21 03:06:44;;;;;;;2.83;2.60;;;;;19.00;99656.00;;;;2064526;28;20215;-51
2022/10/21 03:07:45;;;;;;;2.90;2.40;;;;;19.00;99664.00;;;;2064116;28;20289;-50
2022/10/21 03:08:45;;;;;;;2.90;2.70;;;;;19.00;99650.00;;;;2063679;28;20472;-51
2022/10/21 03:09:45;;;;;;;2.70;2.50;;;;;19.00;99663.00;;;;2064485;28;20224;-51
2022/10/21 03:10:49;;;;;;;2.57;2.37;;;;;19.00;99661.00;;;;2064130;28;20214;-51
2022/10/21 03:11:49;;;;;;;2.42;2.22;;;;;19.00;99663.00;;;;2063411;28;20215;-50
2022/10/21 03:12:50;;;;;;;2.50;2.30;;;;;19.00;99661.00;;;;2064393;28;20207;-51
2022/10/21 03:13:50;;;;;;;2.70;2.50;;;;;19.00;99656.00;;;;2063867;28;20277;-51
2022/10/21 03:14:50;;;;;;;2.97;2.77;;;;;19.00;99659.00;;;;2064319;28;20260;-50
2022/10/21 03:15:50;;;;;;;2.70;2.50;;;;;19.00;99648.00;;;;2064204;28;20207;-50
2022/10/21 03:16:51;;;;;;;2.60;2.40;;;;;19.00;99663.00;;;;2062802;28;20697;-50
2022/10/21 03:17:51;;;;;;;2.57;2.37;;;;;19.00;99660.00;;;;2063349;28;20214;-50
2022/10/21 03:18:51;;;;;;;2.57;2.37;;;;;19.00;99657.00;;;;2063821;28;20227;-51
2022/10/21 03:19:52;;;;;;;2.57;2.37;;;;;19.00;99660.00;;;;2065850;28;20273;-51
2022/10/21 03:20:52;;;;;;;2.50;2.30;;;;;19.00;99656.00;;;;2063904;28;20218;-52
2022/10/21 03:21:52;;;;;;;2.80;2.13;;;;;19.00;99650.00;;;;2063182;28;20245;-50
2022/10/21 03:22:53;;;;;;;2.40;2.20;;;;;19.00;99650.00;;;;2064354;28;20199;-51
2022/10/21 03:23:53;;;;;;;2.83;2.63;;;;;19.00;99650.00;;;;2063877;28;20206;-52
2022/10/21 03:24:53;;;;;;;2.87;2.57;;;;;19.00;99653.00;;;;2064131;28;20905;-52
2022/10/21 03:25:54;;;;;;;2.83;2.63;;;;;19.00;99647.00;;;;2065433;28;20289;-51
2022/10/21 03:26:55;;;;;;;2.60;2.40;;;;;19.00;99641.00;;;;2072196;28;20226;-52
2022/10/21 03:27:55;;;;;;;2.30;2.10;;;;;19.00;99653.00;;;;2071871;28;20218;-51
2022/10/21 03:28:55;;;;;;;2.37;2.17;;;;;19.00;99642.00;;;;2071885;28;20493;-51
2022/10/21 03:29:55;;;;;;;2.70;2.50;;;;;19.00;99637.00;;;;2072215;28;20239;-51
2022/10/21 03:30:56;;;;;;;2.97;2.73;;;;;19.00;99644.00;;;;2071425;28;20214;-51
2022/10/21 03:31:56;;;;;;;3.57;2.53;;;;;19.00;99636.00;;;;2070851;28;20281;-51
2022/10/21 03:32:56;;;;;;;2.93;2.73;;;;;19.00;99646.00;;;;2071612;28;20613;-52
2022/10/21 03:33:57;;;;;;;2.40;2.27;;;;;19.00;99647.00;;;;2071424;28;20268;-52
2022/10/21 03:34:57;;;;;;;2.40;2.20;;;;;19.00;99658.00;;;;2071569;28;20283;-51
2022/10/21 03:35:57;;;;;;;2.40;2.20;;;;;19.00;99643.00;;;;2071355;28;20222;-50
2022/10/21 03:36:58;;;;;;;2.70;2.50;;;;;19.00;99647.00;;;;2071461;28;20246;-51
2022/10/21 03:37:58;;;;;;;2.40;2.20;;;;;19.00;99652.00;;;;2071236;28;20230;-51
2022/10/21 03:38:58;;;;;;;2.53;2.37;;;;;19.00;99647.00;;;;2071267;28;20229;-51
2022/10/21 03:39:59;;;;;;;2.80;2.60;;;;;19.00;99627.00;;;;2071484;28;20264;-51
2022/10/21 03:40:59;;;;;;;2.40;2.20;;;;;19.00;99643.00;;;;2071066;28;20553;-50
2022/10/21 03:41:59;;;;;;;2.23;2.00;;;;;19.00;99648.00;;;;2070404;28;20218;-52
2022/10/21 03:43:00;;;;;;;2.60;2.40;;;;;19.00;99648.00;;;;2071843;28;20313;-50
2022/10/21 03:44:00;;;;;;;2.37;2.17;;;;;19.00;99653.00;;;;2071731;28;20217;-51
2022/10/21 03:45:00;;;;;;;2.50;2.30;;;;;19.00;99650.00;;;;2071513;28;20229;-51
2022/10/21 03:46:01;;;;;;;2.73;2.20;;;;;19.00;99648.00;;;;2070814;28;20222;-50
2022/10/21 03:47:01;;;;;;;2.47;2.27;;;;;19.00;99647.00;;;;2070804;28;20218;-52
2022/10/21 03:48:01;;;;;;;2.50;2.30;;;;;19.00;99649.00;;;;2071591;28;20244;-50
2022/10/21 03:49:02;;;;;;;2.77;2.47;;;;;19.00;99648.00;;;;2071940;28;20249;-51
2022/10/21 03:50:02;;;;;;;2.63;2.43;;;;;19.00;99647.00;;;;2071337;28;20682;-50
2022/10/21 03:51:03;;;;;;;2.70;2.50;;;;;19.00;99641.00;;;;2070125;28;20253;-51
2022/10/21 03:52:03;;;;;;;3.03;2.63;;;;;19.00;99634.00;;;;2070136;28;20276;-52
2022/10/21 03:53:04;;;;;;;2.40;2.20;;;;;19.00;99643.00;;;;2071320;28;20222;-51
2022/10/21 03:54:04;;;;;;;2.80;2.60;;;;;19.00;99670.00;;;;2067933;28;20219;-52
2022/10/21 03:55:05;;;;;;;2.40;2.20;;;;;19.00;99652.00;;;;2062879;28;20465;-51
2022/10/21 03:56:06;;;;;;;2.30;2.10;;;;;19.00;99645.00;;;;2063203;28;20678;-51
2022/10/21 03:57:06;;;;;;;2.73;2.43;;;;;19.00;99644.00;;;;2063392;28;20454;-51
2022/10/21 03:58:06;;;;;;;2.70;2.50;;;;;19.00;99642.00;;;;2062140;28;20223;-51
2022/10/21 03:59:07;;;;;;;2.60;2.40;;;;;19.00;99639.00;;;;2054348;28;20247;-50
2022/10/21 04:00:07;;;;;;;2.67;2.20;;;;;19.00;99635.00;;;;2062635;28;20278;-51
2022/10/21 04:01:11;;;;;;;2.53;2.33;;;;;19.00;99637.00;;;;2064223;28;20226;-52
2022/10/21 04:02:12;;;;;;;1.88;1.77;;;;;19.00;99637.00;;;;2062056;28;20214;-50
2022/10/21 04:03:12;;;;;;;2.60;2.40;;;;;19.00;99631.00;;;;2062849;28;20215;-52
2022/10/21 04:04:12;;;;;;;2.50;2.30;;;;;19.00;99639.00;;;;2065238;28;20241;-51
2022/10/21 04:05:13;;;;;;;2.60;2.40;;;;;19.00;99638.00;;;;2071899;28;20229;-52
2022/10/21 04:06:13;;;;;;;2.10;1.90;;;;;19.00;99645.00;;;;2068430;28;20600;-50
2022/10/21 04:07:13;;;;;;;2.60;2.40;;;;;19.00;99641.00;;;;2063663;28;20608;-50
2022/10/21 04:08:14;;;;;;;2.40;2.20;;;;;19.00;99640.00;;;;2063756;28;20356;-50
2022/10/21 04:09:14;;;;;;;2.20;2.00;;;;;19.00;99625.00;;;;2063815;28;20219;-51
2022/10/21 04:10:14;;;;;;;2.30;2.10;;;;;19.00;99635.00;;;;2063471;28;20218;-50
2022/10/21 04:11:15;;;;;;;2.77;2.57;;;;;19.00;99629.00;;;;2063819;28;20683;-52
2022/10/21 04:12:15;;;;;;;2.27;2.10;;;;;19.00;99637.00;;;;2062868;28;20215;-52
2022/10/21 04:13:15;;;;;;;2.30;2.10;;;;;19.00;99633.00;;;;2063539;28;20218;-50
2022/10/21 04:14:16;;;;;;;2.77;2.57;;;;;19.00;99623.00;;;;2063000;28;20344;-51
2022/10/21 04:15:16;;;;;;;2.53;2.33;;;;;19.00;99634.00;;;;2063103;28;20218;-50
2022/10/21 04:16:18;;;;;;;2.50;2.30;;;;;19.00;99626.00;;;;2068306;28;20744;-51
2022/10/21 04:17:18;;;;;;;2.40;2.20;;;;;19.00;99633.00;;;;2071037;28;20684;-52
2022/10/21 04:18:19;;;;;;;2.67;2.40;;;;;19.00;99636.00;;;;2070734;28;20218;-51
2022/10/21 04:19:19;;;;;;;2.80;2.60;;;;;19.00;99627.00;;;;2071579;28;20224;-51
2022/10/21 04:20:19;;;;;;;2.13;2.03;;;;;19.00;99640.00;;;;2070782;28;20214;-52
2022/10/21 04:21:20;;;;;;;2.37;2.10;;;;;19.00;99643.00;;;;2070855;28;20222;-50
2022/10/21 04:22:20;;;;;;;2.40;2.20;;;;;19.00;99644.00;;;;2071195;28;20236;-51
2022/10/21 04:23:21;;;;;;;2.30;2.10;;;;;19.00;99638.00;;;;2071923;28;21008;-49
2022/10/21 04:24:21;;;;;;;1.97;1.80;;;;;19.00;99637.00;;;;2071458;28;20690;-51
2022/10/21 04:25:21;;;;;;;2.40;2.23;;;;;19.00;99637.00;;;;2071796;28;20214;-50
2022/10/21 04:26:22;;;;;;;2.30;2.10;;;;;18.90;99639.00;;;;2071286;28;20855;-50
2022/10/21 04:27:22;;;;;;;2.37;2.17;;;;;19.00;99642.00;;;;2071058;28;20580;-51
2022/10/21 04:28:22;;;;;;;2.30;2.10;;;;;19.00;99636.00;;;;2070449;28;20704;-50
2022/10/21 04:29:23;;;;;;;2.67;2.47;;;;;19.00;99631.00;;;;2070958;28;20198;-52
2022/10/21 04:30:23;;;;;;;2.27;2.07;;;;;19.00;99640.00;;;;2070508;28;20230;-55
2022/10/21 04:31:24;;;;;;;2.20;2.10;;;;;19.00;99635.00;;;;2071575;28;20213;-53
2022/10/21 04:32:24;;;;;;;2.33;2.13;;;;;19.00;99638.00;;;;2070525;28;20272;-51
2022/10/21 04:33:25;;;;;;;2.40;2.20;;;;;19.00;99643.00;;;;2071897;28;20236;-50
2022/10/21 04:34:25;;;;;;;1.90;1.80;;;;;19.00;99638.00;;;;2071727;28;20221;-51
2022/10/21 04:35:25;;;;;;;2.30;2.10;;;;;19.00;99635.00;;;;2071504;28;20218;-52
2022/10/21 04:36:26;;;;;;;2.60;2.20;;;;;19.00;99640.00;;;;2071944;28;20744;-52
2022/10/21 04:37:26;;;;;;;2.00;1.90;;;;;19.00;99639.00;;;;2071611;28;20835;-52
2022/10/21 04:38:26;;;;;;;2.60;2.30;;;;;19.00;99634.00;;;;2070674;28;20272;-52
2022/10/21 04:39:27;;;;;;;2.23;2.03;;;;;19.00;99639.00;;;;2071338;28;20202;-52
2022/10/21 04:40:27;;;;;;;2.33;2.13;;;;;19.00;99638.00;;;;2071246;28;20237;-50
2022/10/21 04:41:27;;;;;;;2.10;2.00;;;;;19.00;99650.00;;;;2071016;28;20697;-51
2022/10/21 04:42:28;;;;;;;2.27;2.07;;;;;19.00;99635.00;;;;2068966;28;21040;-51
2022/10/21 04:43:28;;;;;;;2.10;1.90;;;;;19.00;99635.00;;;;2062397;28;20272;-51
2022/10/21 04:44:28;;;;;;;2.17;1.97;;;;;19.00;99639.00;;;;2063456;28;20210;-51
2022/10/21 04:45:29;;;;;;;2.10;1.90;;;;;19.00;99639.00;;;;2063538;28;20228;-51
2022/10/21 04:46:29;;;;;;;1.90;1.80;;;;;19.00;99638.00;;;;2062386;28;20207;-52
2022/10/21 04:47:29;;;;;;;2.40;2.20;;;;;19.00;99639.00;;;;2063677;28;20222;-50
2022/10/21 04:48:30;;;;;;;2.10;2.00;;;;;19.00;99631.00;;;;2063537;28;20698;-50
2022/10/21 04:49:30;;;;;;;2.00;1.90;;;;;19.00;99628.00;;;;2063157;28;20710;-51
2022/10/21 04:50:31;;;;;;;2.83;2.17;;;;;19.00;99634.00;;;;2063053;28;20721;-49
2022/10/21 04:51:31;;;;;;;1.98;1.88;;;;;19.00;99641.00;;;;2062563;28;20271;-52
2022/10/21 04:52:32;;;;;;;2.47;2.27;;;;;19.00;99641.00;;;;2062399;28;20213;-50
2022/10/21 04:53:32;;;;;;;2.60;2.40;;;;;19.00;99641.00;;;;2063229;28;20272;-51
2022/10/21 04:54:32;;;;;;;2.00;1.90;;;;;19.00;99643.00;;;;2071477;28;20242;-52
2022/10/21 04:55:33;;;;;;;2.10;1.90;;;;;19.00;99647.00;;;;2071349;28;20213;-52
2022/10/21 04:56:33;;;;;;;2.43;2.23;;;;;19.00;99641.00;;;;2071642;28;20214;-52
2022/10/21 04:57:33;;;;;;;2.23;2.03;;;;;19.00;99642.00;;;;2071203;28;20210;-51
2022/10/21 04:58:34;;;;;;;2.27;2.10;;;;;19.00;99648.00;;;;2071220;28;20313;-52
2022/10/21 04:59:34;;;;;;;2.60;2.30;;;;;19.00;99643.00;;;;2070540;28;20224;-50
2022/10/21 05:00:34;;;;;;;2.13;2.00;;;;;19.00;99650.00;;;;2070945;28;20245;-52
2022/10/21 05:01:35;;;;;;;2.23;2.03;;;;;19.00;99647.00;;;;2071304;28;20213;-51
2022/10/21 05:02:35;;;;;;;2.40;2.20;;;;;19.00;99645.00;;;;2069937;28;20217;-51
2022/10/21 05:03:35;;;;;;;2.30;2.07;;;;;19.00;99648.00;;;;2070695;28;20636;-51
2022/10/21 05:04:36;;;;;;;2.10;2.00;;;;;19.00;99644.00;;;;2071112;28;20206;-52
2022/10/21 05:05:36;;;;;;;2.17;1.97;;;;;19.00;99637.00;;;;2071610;28;20217;-51
2022/10/21 05:06:36;;;;;;;2.53;2.00;;;;;19.00;99645.00;;;;2071478;28;20213;-52
2022/10/21 05:07:37;;;;;;;2.10;1.90;;;;;19.00;99644.00;;;;2073237;28;20220;-50
2022/10/21 05:08:37;;;;;;;2.00;1.90;;;;;19.00;99647.00;;;;2072098;28;20212;-50
2022/10/21 05:09:37;;;;;;;2.30;2.10;;;;;19.00;99648.00;;;;2072271;28;20284;-50
2022/10/21 05:10:38;;;;;;;2.07;1.87;;;;;19.00;99642.00;;;;2066023;28;20207;-51
2022/10/21 05:11:38;;;;;;;2.20;1.90;;;;;19.00;99634.00;;;;2065139;28;20214;-52
2022/10/21 05:12:38;;;;;;;2.33;2.13;;;;;19.00;99634.00;;;;2064267;28;20218;-52
2022/10/21 05:13:39;;;;;;;2.40;2.20;;;;;19.00;99647.00;;;;2065189;28;20266;-51
2022/10/21 05:14:39;;;;;;;2.23;2.03;;;;;19.00;99631.00;;;;2064809;28;20713;-51
2022/10/21 05:15:39;;;;;;;1.90;1.80;;;;;19.00;99631.00;;;;2064930;28;20699;-51
2022/10/21 05:16:40;;;;;;;1.73;1.63;;;;;19.00;99637.00;;;;2065205;28;20223;-49